Time;durP1;ratioP1;P1;durP2;ratioP2;P2;SDS_P1;SDS_P2;PMS_P1;PMS_P2;Temp;Humidity;BMP_temperature;BMP_pressure;BME280_temperature;BME280_humidity;BME280_pressure;Samples;Min_cycle;Max_cycle;Signal;HPM_P1;HPM_P2
2023/08/10 00:01:10;;;;;;;7.32;3.80;;;;;;;18.89;68.10;99410.00;4482714;32;34776;-84
2023/08/10 00:03:38;;;;;;;5.62;3.37;;;;;;;18.84;67.81;99407.44;4482794;31;34831;-83
2023/08/10 00:06:06;;;;;;;6.00;3.47;;;;;;;19.13;66.77;99408.69;4482899;32;33143;-83
2023/08/10 00:08:33;;;;;;;6.18;3.40;;;;;;;19.13;66.77;99408.69;4483178;31;32643;-83
2023/08/10 00:11:01;;;;;;;4.75;2.80;;;;;;;19.04;66.77;99403.59;4494230;31;34739;-83
2023/08/10 00:13:29;;;;;;;4.87;3.00;;;;;;;19.16;66.15;99404.25;4498148;31;34926;-85
2023/08/10 00:15:57;;;;;;;5.78;3.20;;;;;;;19.28;65.72;99400.53;4498673;31;33938;-84
2023/08/10 00:18:25;;;;;;;5.93;3.20;;;;;;;19.48;64.93;99401.91;4498517;31;34746;-85
2023/08/10 00:20:52;;;;;;;6.15;3.28;;;;;;;19.25;65.41;99402.38;4487590;31;33754;-85
2023/08/10 00:23:20;;;;;;;8.25;3.70;;;;;;;19.04;66.13;99398.34;4482849;32;35041;-86
2023/08/10 00:25:47;;;;;;;6.30;3.03;;;;;;;19.02;66.11;99405.41;4482808;32;34576;-86
2023/08/10 00:28:15;;;;;;;5.03;3.20;;;;;;;19.02;65.94;99410.66;4482753;32;32617;-85
2023/08/10 00:30:42;;;;;;;5.25;3.03;;;;;;;19.19;65.25;99403.31;4491834;31;34597;-86
2023/08/10 00:33:11;;;;;;;5.75;3.25;;;;;;;19.09;65.61;99401.75;4498321;31;33449;-85
2023/08/10 00:35:54;;;;;;;5.30;3.05;;;;;;;18.65;66.87;99406.84;4491819;31;33897;-86
2023/08/10 00:38:22;;;;;;;5.40;3.40;;;;;;;18.56;67.28;99401.75;4482607;32;34152;-86
2023/08/10 00:40:51;;;;;;;7.20;3.37;;;;;;;18.31;68.26;99396.00;4482526;31;33999;-86
2023/08/10 00:43:18;;;;;;;5.10;3.08;;;;;;;18.69;66.60;99400.66;4482416;32;34197;-84
2023/08/10 00:45:46;;;;;;;5.78;3.58;;;;;;;18.65;66.94;99400.75;4486861;31;34156;-85
2023/08/10 00:48:13;;;;;;;5.70;3.28;;;;;;;18.23;68.64;99398.75;4497977;31;33788;-85
2023/08/10 00:50:41;;;;;;;7.87;3.15;;;;;;;18.55;67.23;99404.41;4497991;31;34784;-85
2023/08/10 00:53:09;;;;;;;5.40;3.40;;;;;;;18.51;67.34;99392.22;4496659;31;34844;-86
2023/08/10 00:55:37;;;;;;;6.22;3.28;;;;;;;18.32;67.77;99395.12;4489089;31;34708;-85
2023/08/10 00:58:04;;;;;;;6.00;3.10;;;;;;;18.43;67.45;99389.72;4466552;32;32694;-86
2023/08/10 01:00:34;;;;;;;6.97;3.55;;;;;;;18.16;68.44;99396.25;4466432;32;34191;-86
2023/08/10 01:03:02;;;;;;;5.00;3.00;;;;;;;18.37;67.59;99388.06;4465214;32;34117;-85
2023/08/10 01:05:33;;;;;;;5.15;2.85;;;;;;;18.31;67.58;99392.53;4471997;31;34011;-85
2023/08/10 01:08:12;;;;;;;6.55;3.20;;;;;;;18.35;67.64;99402.94;4496047;31;33819;-86
2023/08/10 01:11:19;;;;;;;4.55;3.00;;;;;;;18.51;66.70;99392.22;4496372;31;33627;-85
2023/08/10 01:13:55;;;;;;;4.62;2.72;;;;;;;18.57;66.58;99393.00;4475652;31;34023;-85
2023/08/10 01:16:23;;;;;;;5.40;3.40;;;;;;;18.67;65.78;99397.19;4489187;31;33901;-86
2023/08/10 01:18:51;;;;;;;5.15;2.97;;;;;;;18.53;66.18;99396.56;4481836;32;33539;-85
2023/08/10 01:21:28;;;;;;;5.07;3.15;;;;;;;18.56;66.01;99396.50;4484468;31;34133;-86
2023/08/10 01:23:59;;;;;;;5.85;3.50;;;;;;;18.48;66.62;99391.34;4484153;32;34694;-85
2023/08/10 01:26:27;;;;;;;4.93;3.30;;;;;;;18.56;65.83;99395.62;4490620;31;34131;-85
2023/08/10 01:28:55;;;;;;;4.95;3.17;;;;;;;18.37;66.52;99401.19;4498559;31;33014;-86
2023/08/10 01:31:23;;;;;;;6.53;3.55;;;;;;;18.44;66.33;99392.28;4498646;31;34542;-85
2023/08/10 01:33:50;;;;;;;5.07;3.30;;;;;;;18.55;65.99;99394.75;4497013;31;34233;-85
2023/08/10 01:36:18;;;;;;;5.50;3.10;;;;;;;18.60;65.60;99399.94;4498717;31;34164;-85
2023/08/10 01:38:46;;;;;;;4.93;2.95;;;;;;;18.69;64.94;99405.06;4499704;31;33215;-85
2023/08/10 01:41:14;;;;;;;4.70;3.10;;;;;;;18.57;65.21;99398.25;4499550;31;33793;-85
2023/08/10 01:44:00;;;;;;;4.70;3.35;;;;;;;18.58;65.44;99399.09;4486667;31;35837;-85
2023/08/10 01:46:46;;;;;;;9.10;3.58;;;;;;;18.39;66.13;99403.78;4483649;32;35539;-84
2023/08/10 01:49:14;;;;;;;6.22;3.67;;;;;;;18.52;65.61;99404.44;4482720;32;34427;-86
2023/08/10 01:51:42;;;;;;;6.37;3.53;;;;;;;18.40;65.91;99405.50;4484187;32;33714;-85
2023/08/10 01:54:11;;;;;;;6.57;3.67;;;;;;;18.12;66.87;99395.41;4494465;31;34060;-85
2023/08/10 01:56:38;;;;;;;5.30;3.03;;;;;;;18.26;66.53;99392.59;4498233;31;33835;-84
2023/08/10 01:59:06;;;;;;;4.87;3.50;;;;;;;18.19;66.80;99398.81;4498396;31;34208;-84
2023/08/10 02:01:33;;;;;;;6.32;3.33;;;;;;;18.28;66.40;99393.44;4499408;31;33998;-83
2023/08/10 02:04:01;;;;;;;5.68;3.62;;;;;;;18.20;66.52;99397.94;4487008;31;34371;-85
2023/08/10 02:06:30;;;;;;;6.07;3.45;;;;;;;18.25;66.31;99390.84;4484090;32;33902;-85
2023/08/10 02:08:58;;;;;;;7.03;3.50;;;;;;;18.15;66.60;99394.50;4483806;32;34873;-85
2023/08/10 02:11:26;;;;;;;5.35;3.22;;;;;;;18.20;66.41;99395.31;4484149;32;34759;-84
2023/08/10 02:13:53;;;;;;;6.35;3.75;;;;;;;18.40;65.93;99390.59;4495203;31;33784;-85
2023/08/10 02:16:21;;;;;;;6.80;3.17;;;;;;;17.98;67.42;99395.59;4499654;31;34442;-85
2023/08/10 02:18:49;;;;;;;5.75;3.70;;;;;;;18.11;66.96;99398.06;4499932;31;33491;-85
2023/08/10 02:21:16;;;;;;;7.30;3.62;;;;;;;17.98;67.35;99402.59;4499511;31;35292;-84
2023/08/10 02:23:44;;;;;;;5.85;3.65;;;;;;;18.03;67.20;99395.53;4488651;31;34769;-85
2023/08/10 02:26:11;;;;;;;5.93;4.10;;;;;;;17.82;68.39;99401.94;4483518;32;34259;-84
2023/08/10 02:28:39;;;;;;;7.18;3.65;;;;;;;17.89;68.07;99400.97;4483607;32;33291;-85
2023/08/10 02:31:07;;;;;;;5.85;3.85;;;;;;;17.69;68.81;99389.81;4482672;32;34523;-85
2023/08/10 02:33:35;;;;;;;5.82;4.07;;;;;;;17.68;68.76;99396.81;4492495;31;34226;-85
2023/08/10 02:36:02;;;;;;;6.15;4.30;;;;;;;17.63;69.42;99396.03;4499484;31;33688;-85
2023/08/10 02:38:29;;;;;;;7.18;4.57;;;;;;;17.58;69.66;99395.22;4499119;31;34099;-84
2023/08/10 02:40:57;;;;;;;7.12;4.40;;;;;;;17.42;70.58;99391.87;4499293;31;34851;-85
2023/08/10 02:43:25;;;;;;;6.68;3.97;;;;;;;17.38;70.61;99395.44;4491266;31;32928;-84
2023/08/10 02:45:52;;;;;;;6.70;4.47;;;;;;;17.68;69.62;99398.59;4483759;32;33657;-85
2023/08/10 02:48:20;;;;;;;6.82;4.18;;;;;;;17.62;69.93;99393.44;4483652;32;33102;-85
2023/08/10 02:50:48;;;;;;;6.95;4.78;;;;;;;17.73;69.41;99389.78;4483491;32;35190;-85
2023/08/10 02:53:15;;;;;;;6.87;5.03;;;;;;;17.82;69.11;99396.69;4489806;31;34693;-84
2023/08/10 02:55:43;;;;;;;7.45;5.55;;;;;;;17.63;69.82;99403.03;4499321;31;34056;-87
2023/08/10 02:58:11;;;;;;;10.52;5.80;;;;;;;17.18;71.83;99407.88;4499338;31;33409;-86
2023/08/10 03:00:38;;;;;;;8.27;5.85;;;;;;;17.35;71.07;99392.88;4497551;31;33662;-86
2023/08/10 03:03:06;;;;;;;9.40;5.75;;;;;;;17.21;71.70;99400.88;4499096;31;34986;-85
2023/08/10 03:05:34;;;;;;;7.82;5.60;;;;;;;17.14;71.97;99395.69;4499429;31;33474;-85
2023/08/10 03:08:02;;;;;;;7.53;5.37;;;;;;;17.57;70.27;99401.31;4498970;31;34034;-84
2023/08/10 03:10:30;;;;;;;7.00;5.50;;;;;;;17.49;70.14;99395.31;4486145;31;34630;-85
2023/08/10 03:12:58;;;;;;;9.35;6.00;;;;;;;17.38;70.63;99398.06;4483610;32;34210;-85
2023/08/10 03:15:26;;;;;;;10.32;6.03;;;;;;;17.62;69.82;99398.69;4483496;32;34751;-85
2023/08/10 03:17:54;;;;;;;8.32;6.00;;;;;;;17.47;70.53;99400.59;4483249;32;34244;-86
2023/08/10 03:20:22;;;;;;;8.50;6.18;;;;;;;17.73;69.55;99399.41;4494839;31;34275;-85
2023/08/10 03:22:50;;;;;;;8.50;5.97;;;;;;;17.62;70.03;99398.69;4498962;31;34652;-85
2023/08/10 03:25:17;;;;;;;8.20;5.85;;;;;;;17.65;69.59;99388.12;4499056;31;33883;-85
2023/08/10 03:27:45;;;;;;;7.97;5.50;;;;;;;17.62;69.68;99393.44;4485077;31;33439;-85
2023/08/10 03:30:13;;;;;;;10.38;5.37;;;;;;;17.79;69.11;99399.34;4481843;32;34646;-86
2023/08/10 03:32:41;;;;;;;7.50;5.37;;;;;;;17.79;68.83;99394.09;4483088;32;34254;-84
2023/08/10 03:35:10;;;;;;;7.80;5.18;;;;;;;17.83;68.41;99395.78;4484015;31;34581;-84
2023/08/10 03:37:38;;;;;;;8.35;5.30;;;;;;;17.76;68.62;99396.75;4499044;31;33706;-85
2023/08/10 03:40:07;;;;;;;6.80;5.10;;;;;;;17.74;68.82;99399.37;4498324;31;34131;-85
2023/08/10 03:42:36;;;;;;;7.22;4.95;;;;;;;17.77;68.86;99411.63;4498420;31;34692;-85
2023/08/10 03:45:04;;;;;;;7.50;5.37;;;;;;;17.85;68.77;99417.66;4497144;31;34073;-85
2023/08/10 03:47:33;;;;;;;9.00;5.18;;;;;;;17.77;69.02;99424.75;4483002;32;34079;-86
2023/08/10 03:50:01;;;;;;;9.07;6.05;;;;;;;17.70;69.20;99428.28;4483049;32;34180;-85
2023/08/10 03:52:29;;;;;;;7.25;5.80;;;;;;;17.43;70.17;99430.34;4483059;32;33996;-85
2023/08/10 03:54:56;;;;;;;7.25;4.82;;;;;;;17.45;70.10;99433.78;4483052;32;34071;-85
2023/08/10 03:57:24;;;;;;;9.70;5.80;;;;;;;17.62;69.53;99430.13;4498559;31;34230;-86
2023/08/10 03:59:52;;;;;;;7.22;5.45;;;;;;;17.65;69.34;99435.31;4498189;31;33955;-86
2023/08/10 04:02:19;;;;;;;7.87;5.12;;;;;;;17.73;68.62;99434.38;4498827;31;35055;-85
2023/08/10 04:04:47;;;;;;;8.48;5.18;;;;;;;17.79;68.29;99437.81;4497824;31;34972;-85
2023/08/10 04:07:15;;;;;;;7.55;4.97;;;;;;;17.65;68.89;99443.19;4482910;31;33793;-86
2023/08/10 04:09:47;;;;;;;8.63;5.22;;;;;;;17.79;68.40;99441.31;4482800;32;34546;-86
2023/08/10 04:12:16;;;;;;;7.15;5.15;;;;;;;17.72;69.02;99442.22;4482875;32;35172;-85
2023/08/10 04:14:43;;;;;;;8.60;5.35;;;;;;;17.57;69.32;99443.28;4483088;31;34621;-85
2023/08/10 04:17:11;;;;;;;7.25;5.10;;;;;;;17.52;69.71;99445.09;4498278;31;34066;-86
2023/08/10 04:19:40;;;;;;;7.10;5.43;;;;;;;17.45;70.32;99448.66;4496748;31;33911;-85
2023/08/10 04:22:07;;;;;;;7.78;5.35;;;;;;;17.63;69.67;99447.59;4497289;31;33359;-85
2023/08/10 04:24:35;;;;;;;6.10;4.72;;;;;;;17.41;70.48;99454.81;4498447;31;33755;-86
2023/08/10 04:27:05;;;;;;;6.35;4.30;;;;;;;17.97;68.76;99456.81;4498433;31;33419;-86
2023/08/10 04:29:33;;;;;;;7.90;5.15;;;;;;;17.99;68.65;99447.19;4485476;31;34035;-85
2023/08/10 04:32:00;;;;;;;8.63;5.00;;;;;;;18.17;68.32;99442.56;4477429;31;33227;-85
2023/08/10 04:34:28;;;;;;;7.50;5.20;;;;;;;18.26;67.74;99449.44;4497825;31;33776;-85
2023/08/10 04:36:55;;;;;;;7.28;4.87;;;;;;;18.80;65.91;99447.81;4498221;31;34149;-85
2023/08/10 04:39:23;;;;;;;6.45;4.30;;;;;;;18.75;66.11;99448.75;4497954;31;33969;-85
2023/08/10 04:41:51;;;;;;;6.35;4.10;;;;;;;19.40;64.30;99450.25;4496501;31;35564;-85
2023/08/10 04:44:18;;;;;;;7.93;4.25;;;;;;;19.67;63.21;99443.63;4482254;32;33377;-85
2023/08/10 04:46:46;;;;;;;6.75;4.10;;;;;;;19.61;62.73;99442.84;4482327;32;33435;-85
2023/08/10 04:49:14;;;;;;;6.40;4.10;;;;;;;19.81;62.13;99446.00;4484484;31;33979;-85
2023/08/10 04:51:41;;;;;;;5.90;3.90;;;;;;;19.93;61.67;99451.00;4498177;31;34127;-85
2023/08/10 04:54:09;;;;;;;6.78;4.25;;;;;;;20.58;60.03;99446.97;4499520;31;34081;-85
2023/08/10 04:56:37;;;;;;;5.72;3.40;;;;;;;20.49;60.21;99453.31;4493954;31;34400;-85
2023/08/10 04:59:04;;;;;;;8.30;3.97;;;;;;;21.14;58.25;99442.09;4484289;32;34592;-86
2023/08/10 05:01:32;;;;;;;5.45;3.08;;;;;;;21.47;56.88;99450.88;4484212;32;33873;-85
2023/08/10 05:03:59;;;;;;;5.47;3.70;;;;;;;21.33;56.70;99456.56;4484132;32;33866;-85
2023/08/10 05:06:27;;;;;;;5.97;3.35;;;;;;;21.19;57.31;99450.72;4488756;31;33257;-84
2023/08/10 05:08:54;;;;;;;7.00;4.00;;;;;;;21.13;57.54;99461.41;4499976;31;33524;-84
2023/08/10 05:11:23;;;;;;;6.57;3.78;;;;;;;20.72;59.00;99457.16;4499960;31;34558;-83
2023/08/10 05:13:50;;;;;;;6.47;3.33;;;;;;;21.26;58.33;99449.66;4500368;31;33580;-83
2023/08/10 05:16:18;;;;;;;5.97;3.90;;;;;;;21.60;56.71;99454.94;4496056;31;33883;-82
2023/08/10 05:18:45;;;;;;;7.60;3.53;;;;;;;21.27;56.95;99447.91;4483837;31;34004;-85
2023/08/10 05:21:13;;;;;;;5.43;3.22;;;;;;;21.36;56.32;99440.62;4482675;32;34910;-84
2023/08/10 05:23:40;;;;;;;5.30;3.20;;;;;;;21.45;56.42;99454.50;4484077;32;34651;-83
2023/08/10 05:26:08;;;;;;;6.65;3.50;;;;;;;20.96;58.03;99455.72;4485577;31;33523;-82
2023/08/10 05:28:36;;;;;;;6.20;3.72;;;;;;;21.49;57.38;99457.00;4488759;31;34091;-84
2023/08/10 05:31:03;;;;;;;5.70;3.60;;;;;;;21.01;58.15;99467.87;4483707;32;34911;-83
2023/08/10 05:33:31;;;;;;;5.68;3.25;;;;;;;20.99;58.45;99466.19;4483815;32;35057;-84
2023/08/10 05:35:58;;;;;;;5.30;3.55;;;;;;;20.88;58.77;99472.59;4483882;31;33167;-87
2023/08/10 05:38:26;;;;;;;6.93;3.40;;;;;;;20.71;59.28;99474.75;4484787;31;33731;-86
2023/08/10 05:40:56;;;;;;;7.22;3.97;;;;;;;20.35;60.57;99479.06;4484275;32;34433;-87
2023/08/10 05:43:23;;;;;;;8.20;5.15;;;;;;;20.78;59.91;99478.97;4484909;31;34948;-82
2023/08/10 05:45:51;;;;;;;7.90;4.50;;;;;;;20.18;60.95;99482.91;4498375;31;34333;-84
2023/08/10 05:48:18;;;;;;;6.50;3.75;;;;;;;20.28;60.47;99490.63;4498401;31;34026;-83
2023/08/10 05:50:46;;;;;;;7.25;3.45;;;;;;;20.18;61.42;99489.94;4499814;31;34327;-85
2023/08/10 05:53:14;;;;;;;5.87;3.70;;;;;;;20.48;61.09;99491.06;4500194;31;33671;-86
2023/08/10 05:55:42;;;;;;;5.43;3.53;;;;;;;20.50;60.83;99491.06;4485623;31;33261;-86
2023/08/10 05:58:09;;;;;;;6.85;3.53;;;;;;;19.81;63.06;99489.81;4483984;32;34070;-85
2023/08/10 06:00:37;;;;;;;7.10;3.87;;;;;;;20.14;61.91;99491.78;4481229;31;33463;-84
2023/08/10 06:03:05;;;;;;;7.45;4.00;;;;;;;20.32;61.10;99497.56;4490733;31;33440;-84
2023/08/10 06:05:35;;;;;;;8.27;4.15;;;;;;;19.98;62.35;99489.50;4483861;31;32641;-85
2023/08/10 06:08:02;;;;;;;6.15;3.90;;;;;;;19.82;62.40;99495.09;4488677;31;33775;-88
2023/08/10 06:10:30;;;;;;;8.43;4.15;;;;;;;19.73;63.60;99499.63;4499620;31;34813;-85
2023/08/10 06:12:58;;;;;;;7.55;4.30;;;;;;;20.15;62.20;99495.28;4499672;31;33727;-85
2023/08/10 06:15:25;;;;;;;7.28;4.03;;;;;;;20.36;61.20;99492.19;4499343;31;33488;-85
2023/08/10 06:17:53;;;;;;;6.05;4.05;;;;;;;20.32;61.37;99494.94;4499660;31;33680;-84
2023/08/10 06:20:26;;;;;;;6.93;4.22;;;;;;;20.34;61.42;99486.12;4499349;31;34933;-84
2023/08/10 06:22:54;;;;;;;8.45;3.90;;;;;;;20.38;60.89;99489.50;4499524;31;35023;-84
2023/08/10 06:25:22;;;;;;;7.32;3.97;;;;;;;20.71;60.29;99489.69;4491917;31;33459;-84
2023/08/10 06:27:50;;;;;;;7.35;3.35;;;;;;;20.88;59.92;99498.94;4466687;32;33650;-86
2023/08/10 06:30:18;;;;;;;5.53;3.12;;;;;;;20.60;61.34;99495.22;4466395;32;33214;-83
2023/08/10 06:32:46;;;;;;;4.95;2.83;;;;;;;19.77;62.92;99496.91;4467884;32;34014;-88
2023/08/10 06:35:14;;;;;;;5.65;3.33;;;;;;;20.21;61.70;99497.78;4472385;31;33296;-84
2023/08/10 06:37:42;;;;;;;7.15;2.87;;;;;;;19.86;62.88;99498.53;4499475;31;34738;-85
2023/08/10 06:40:11;;;;;;;5.32;3.22;;;;;;;20.51;61.86;99511.22;4499263;31;34308;-85
2023/08/10 06:42:38;;;;;;;6.62;3.28;;;;;;;20.59;59.77;99507.50;4495324;31;34058;-86
2023/08/10 06:45:08;;;;;;;4.93;2.70;;;;;;;20.21;60.73;99508.31;4482111;32;31977;-85
2023/08/10 06:47:36;;;;;;;5.62;3.50;;;;;;;20.44;61.07;99509.59;4482459;32;34007;-87
2023/08/10 06:50:05;;;;;;;4.95;2.72;;;;;;;20.46;59.97;99518.34;4481703;32;34138;-83
2023/08/10 06:52:33;;;;;;;7.32;3.60;;;;;;;20.61;60.64;99525.94;4483828;32;33755;-85
2023/08/10 06:55:01;;;;;;;5.30;3.03;;;;;;;20.76;60.60;99525.59;4484126;32;33524;-85
2023/08/10 06:57:28;;;;;;;5.93;3.70;;;;;;;21.16;59.82;99529.91;4483262;32;34826;-83
2023/08/10 06:59:56;;;;;;;6.45;3.17;;;;;;;21.62;57.67;99528.75;4483138;32;34257;-83
2023/08/10 07:02:26;;;;;;;5.28;3.05;;;;;;;21.43;58.69;99538.06;4482303;32;33414;-85
2023/08/10 07:04:54;;;;;;;6.12;3.08;;;;;;;21.09;59.82;99533.59;4483290;32;33473;-86
2023/08/10 07:07:22;;;;;;;4.28;2.65;;;;;;;21.61;57.77;99527.03;4483245;32;34601;-85
2023/08/10 07:09:49;;;;;;;6.25;3.12;;;;;;;21.61;57.54;99521.75;4483285;32;33988;-84
2023/08/10 07:12:17;;;;;;;5.97;3.28;;;;;;;21.17;58.21;99528.13;4483631;32;33983;-83
2023/08/10 07:14:44;;;;;;;6.05;3.12;;;;;;;21.22;57.57;99532.41;4482587;32;33156;-83
2023/08/10 07:17:12;;;;;;;4.57;2.78;;;;;;;21.44;56.87;99534.50;4485362;31;34611;-85
2023/08/10 07:19:39;;;;;;;4.70;2.65;;;;;;;21.07;58.17;99536.28;4483199;32;34726;-83
2023/08/10 07:22:07;;;;;;;4.62;2.28;;;;;;;21.58;57.20;99527.97;4481837;32;34200;-83
2023/08/10 07:24:34;;;;;;;6.18;2.78;;;;;;;21.44;57.24;99537.16;4482770;32;34464;-84
2023/08/10 07:27:04;;;;;;;4.32;2.65;;;;;;;21.14;57.33;99537.88;4482745;32;34838;-82
2023/08/10 07:29:36;;;;;;;4.97;2.53;;;;;;;20.93;57.79;99540.12;4482370;32;34070;-83
2023/08/10 07:32:06;;;;;;;6.75;2.65;;;;;;;21.11;57.19;99539.69;4482849;31;33870;-83
2023/08/10 07:34:34;;;;;;;5.50;2.40;;;;;;;21.23;57.09;99544.66;4488281;31;33119;-84
2023/08/10 07:37:02;;;;;;;4.22;2.40;;;;;;;21.95;55.39;99541.97;4466365;32;33824;-84
2023/08/10 07:39:29;;;;;;;4.05;2.42;;;;;;;21.16;56.74;99542.22;4467262;32;34979;-85
2023/08/10 07:41:57;;;;;;;4.82;2.28;;;;;;;21.42;55.85;99544.25;4467558;32;34042;-85
2023/08/10 07:44:24;;;;;;;5.60;2.20;;;;;;;21.35;55.59;99538.25;4482396;32;34760;-85
2023/08/10 07:46:55;;;;;;;4.25;1.65;;;;;;;21.59;54.75;99534.09;4482758;32;33611;-85
2023/08/10 07:49:22;;;;;;;5.07;1.85;;;;;;;21.38;55.05;99533.78;4482746;32;33779;-84
2023/08/10 07:51:50;;;;;;;3.78;1.90;;;;;;;22.02;52.83;99541.75;4483145;32;33447;-84
2023/08/10 07:54:17;;;;;;;2.95;1.52;;;;;;;22.11;52.99;99543.25;4482611;32;33013;-86
2023/08/10 07:56:45;;;;;;;4.07;1.80;;;;;;;21.92;51.00;99534.13;4482909;32;34795;-78
2023/08/10 07:59:13;;;;;;;4.22;1.58;;;;;;;21.66;51.46;99535.69;4482177;32;34984;-86
2023/08/10 08:01:40;;;;;;;3.72;1.80;;;;;;;21.44;52.52;99537.16;4483222;32;33475;-84
2023/08/10 08:04:08;;;;;;;3.40;1.50;;;;;;;21.63;51.58;99533.16;4482962;32;33472;-85
2023/08/10 08:06:36;;;;;;;2.78;1.70;;;;;;;21.63;52.19;99533.16;4482824;32;34421;-85
2023/08/10 08:09:06;;;;;;;4.57;1.77;;;;;;;21.69;52.19;99542.66;4482487;32;33735;-84
2023/08/10 08:11:37;;;;;;;4.80;2.05;;;;;;;21.74;51.47;99540.75;4481818;32;34577;-86
2023/08/10 08:14:04;;;;;;;4.00;1.70;;;;;;;21.35;53.06;99552.31;4482942;32;34144;-86
2023/08/10 08:16:32;;;;;;;3.78;1.62;;;;;;;21.80;51.92;99543.25;4481634;32;33924;-84
2023/08/10 08:19:00;;;;;;;3.80;1.33;;;;;;;22.06;48.77;99537.25;4482138;32;34171;-86
2023/08/10 08:21:29;;;;;;;3.15;1.30;;;;;;;22.11;49.92;99544.13;4491571;31;34657;-87
2023/08/10 08:23:57;;;;;;;3.22;1.50;;;;;;;21.88;49.89;99546.53;4482246;32;33531;-87
2023/08/10 08:26:28;;;;;;;4.97;1.30;;;;;;;22.35;50.55;99549.66;4482890;32;33248;-89
2023/08/10 08:28:57;;;;;;;3.95;1.20;;;;;;;22.36;47.55;99540.81;4482892;32;34317;-88
2023/08/10 08:31:25;;;;;;;2.95;1.30;;;;;;;22.04;48.00;99554.88;4482664;32;33662;-86
2023/08/10 08:33:53;;;;;;;3.00;1.42;;;;;;;22.41;48.34;99559.16;4482952;32;33108;-87
2023/08/10 08:36:21;;;;;;;2.80;1.30;;;;;;;22.55;47.94;99560.50;4481074;32;33838;-85
2023/08/10 08:38:48;;;;;;;3.08;1.30;;;;;;;22.67;46.36;99555.75;4481462;32;34751;-86
2023/08/10 08:41:18;;;;;;;5.18;1.52;;;;;;;22.69;47.07;99564.47;4482051;32;34612;-84
2023/08/10 08:43:47;;;;;;;3.53;1.12;;;;;;;22.80;46.04;99557.94;4481378;32;33235;-89
2023/08/10 08:46:16;;;;;;;2.25;1.30;;;;;;;22.74;47.13;99563.44;4481321;32;33903;-89
2023/08/10 08:48:45;;;;;;;5.05;1.50;;;;;;;22.65;47.60;99558.41;4481225;32;33899;-89
2023/08/10 08:51:12;;;;;;;2.78;1.08;;;;;;;22.75;47.60;99559.87;4481253;32;33969;-87
2023/08/10 08:53:40;;;;;;;2.67;1.12;;;;;;;22.98;44.67;99553.03;4481201;32;33079;-86
2023/08/10 08:56:08;;;;;;;3.70;1.20;;;;;;;22.44;44.53;99553.81;4480928;32;34685;-86
2023/08/10 08:58:35;;;;;;;2.40;1.10;;;;;;;22.57;43.79;99553.38;4482464;32;34212;-88
2023/08/10 09:01:03;;;;;;;2.92;1.17;;;;;;;22.77;43.08;99557.22;4482357;32;33924;-87
2023/08/10 09:03:31;;;;;;;2.22;0.88;;;;;;;22.72;44.31;99562.62;4480463;32;34706;-86
2023/08/10 09:06:00;;;;;;;2.33;1.00;;;;;;;22.86;40.63;99551.63;4482343;32;34391;-86
2023/08/10 09:08:27;;;;;;;2.28;1.00;;;;;;;22.42;42.76;99550.31;4481027;32;34146;-88
2023/08/10 09:10:59;;;;;;;2.62;1.12;;;;;;;23.05;41.57;99554.59;4480666;32;34076;-87
2023/08/10 09:13:26;;;;;;;2.60;1.08;;;;;;;23.14;42.20;99558.69;4481733;32;33176;-87
2023/08/10 09:16:13;;;;;;;2.37;0.95;;;;;;;22.93;39.14;99554.97;4490743;31;33799;-86
2023/08/10 09:18:44;;;;;;;9.20;2.17;;;;;;;22.93;38.51;99552.34;4481966;32;34986;-87
2023/08/10 09:21:19;;;;;;;3.97;1.02;;;;;;;22.93;40.79;99557.63;4482135;32;33992;-87
2023/08/10 09:23:53;;;;;;;2.75;1.23;;;;;;;22.92;40.53;99554.13;4482053;32;33111;-86
2023/08/10 09:26:22;;;;;;;3.17;1.10;;;;;;;22.63;40.52;99554.97;4480402;32;34553;-87
2023/08/10 09:28:50;;;;;;;2.95;1.10;;;;;;;22.55;39.82;99557.84;4481425;32;34316;-85
2023/08/10 09:31:26;;;;;;;2.15;0.98;;;;;;;23.30;36.67;99552.88;4481626;32;33957;-86
2023/08/10 09:33:56;;;;;;;2.30;1.12;;;;;;;23.22;37.29;99554.91;4482159;32;32995;-85
2023/08/10 09:36:25;;;;;;;2.10;0.80;;;;;;;23.35;37.57;99555.38;4489266;31;33732;-88
2023/08/10 09:38:53;;;;;;;3.45;1.40;;;;;;;23.42;37.28;99553.38;4480106;32;33927;-88
2023/08/10 09:41:23;;;;;;;2.47;0.80;;;;;;;23.01;37.91;99558.25;4484384;32;33773;-85
2023/08/10 09:43:51;;;;;;;5.47;1.42;;;;;;;23.03;38.20;99548.47;4482823;32;33926;-86
2023/08/10 09:46:18;;;;;;;4.47;1.10;;;;;;;23.05;39.35;99554.59;4484087;32;33925;-86
2023/08/10 09:48:48;;;;;;;3.72;1.10;;;;;;;;;;4483552;32;34451;-87
2023/08/10 09:51:16;;;;;;;2.30;1.00;;;;;;;23.33;39.94;99546.59;4484147;32;34090;-88
2023/08/10 09:53:44;;;;;;;2.08;1.00;;;;;;;23.20;39.21;99551.44;4483774;32;33615;-87
2023/08/10 09:56:12;;;;;;;3.12;1.25;;;;;;;23.43;38.68;99552.47;4483934;32;33682;-89
2023/08/10 09:58:41;;;;;;;2.75;1.10;;;;;;;23.73;38.20;99553.22;4483748;32;33744;-89
2023/08/10 10:01:09;;;;;;;2.92;1.05;;;;;;;23.33;38.79;99551.03;4483791;32;33785;-86
2023/08/10 10:03:43;;;;;;;1.92;0.80;;;;;;;23.54;39.91;99559.13;4483790;32;34819;-85
2023/08/10 10:06:13;;;;;;;3.15;1.20;;;;;;;24.01;39.39;99558.41;4483104;32;34037;-85
2023/08/10 10:08:47;;;;;;;3.42;0.93;;;;;;;24.03;35.51;99546.84;4482503;32;34116;-87
2023/08/10 10:11:15;;;;;;;2.83;1.27;;;;;;;23.75;38.03;99546.09;4483062;32;33824;-86
2023/08/10 10:13:43;;;;;;;3.35;1.10;;;;;;;23.86;37.92;99545.72;4482730;32;33558;-86
2023/08/10 10:16:11;;;;;;;2.20;1.00;;;;;;;23.95;36.93;99540.97;4482314;32;33541;-85
2023/08/10 10:18:40;;;;;;;1.90;0.88;;;;;;;23.59;36.67;99543.06;4483586;32;34346;-84
2023/08/10 10:21:07;;;;;;;3.70;1.05;;;;;;;23.47;35.04;99548.78;4482728;32;33782;-87
2023/08/10 10:23:40;;;;;;;2.65;1.15;;;;;;;23.48;36.39;99542.56;4489285;31;33359;-84
2023/08/10 10:26:08;;;;;;;2.40;0.90;;;;;;;23.44;37.69;99543.59;4484369;31;33662;-85
2023/08/10 10:28:36;;;;;;;3.00;1.15;;;;;;;23.52;40.32;99544.19;4483598;32;34565;-88
2023/08/10 10:31:03;;;;;;;2.75;1.10;;;;;;;23.72;39.37;99544.44;4483567;32;34229;-86
2023/08/10 10:33:32;;;;;;;4.72;1.33;;;;;;;23.98;36.04;99539.97;4483749;32;33582;-86
2023/08/10 10:36:09;;;;;;;2.90;0.88;;;;;;;24.13;35.63;99533.25;4482454;32;33974;-86
2023/08/10 10:38:56;;;;;;;2.75;1.20;;;;;;;24.03;34.75;99540.69;4483825;32;34387;-86
2023/08/10 10:41:31;;;;;;;4.60;1.30;;;;;;;24.28;36.47;99538.88;4483505;32;34005;-86
2023/08/10 10:44:00;;;;;;;2.92;1.02;;;;;;;24.04;32.58;99537.13;4484020;32;33303;-83
2023/08/10 10:46:31;;;;;;;2.95;1.15;;;;;;;24.26;31.92;99522.16;4482153;32;33792;-85
2023/08/10 10:48:59;;;;;;;3.62;1.23;;;;;;;23.86;34.29;99535.97;4483778;32;34197;-85
2023/08/10 10:51:28;;;;;;;3.53;1.10;;;;;;;23.71;33.57;99521.50;4482537;32;34655;-86
2023/08/10 10:53:57;;;;;;;3.17;1.27;;;;;;;24.02;35.19;99525.72;4481979;32;34022;-87
2023/08/10 10:56:25;;;;;;;3.78;1.52;;;;;;;23.74;36.43;99526.69;4483534;32;33919;-86
2023/08/10 10:58:53;;;;;;;2.15;1.00;;;;;;;23.99;36.77;99531.13;4483704;32;33622;-86
2023/08/10 11:01:21;;;;;;;4.07;1.33;;;;;;;24.16;36.49;99526.06;4483776;32;34088;-86
2023/08/10 11:03:51;;;;;;;2.85;1.00;;;;;;;24.18;36.59;99520.72;4483861;32;33484;-86
2023/08/10 11:06:20;;;;;;;5.85;1.20;;;;;;;24.31;36.30;99523.75;4483269;32;34883;-86
2023/08/10 11:08:51;;;;;;;4.20;1.33;;;;;;;24.35;35.44;99522.72;4483507;32;35105;-84
2023/08/10 11:11:19;;;;;;;3.47;1.00;;;;;;;24.52;37.36;99529.16;4484393;31;33785;-83
2023/08/10 11:13:47;;;;;;;2.92;0.93;;;;;;;24.41;34.33;99525.19;4490733;31;33403;-85
2023/08/10 11:16:16;;;;;;;2.05;0.93;;;;;;;24.30;36.06;99514.94;4482513;32;34115;-83
2023/08/10 11:18:45;;;;;;;2.50;0.98;;;;;;;24.88;36.38;99518.00;4483173;32;35038;-83
2023/08/10 11:21:13;;;;;;;2.05;1.00;;;;;;;24.83;37.30;99520.00;4482884;32;34442;-83
2023/08/10 11:23:40;;;;;;;2.90;1.23;;;;;;;25.12;33.94;99510.03;4481999;32;32971;-86
2023/08/10 11:26:08;;;;;;;3.08;0.90;;;;;;;25.28;33.69;99511.13;4491887;31;33408;-83
2023/08/10 11:28:37;;;;;;;2.15;1.20;;;;;;;24.90;34.08;99515.31;4489268;31;33983;-85
2023/08/10 11:31:06;;;;;;;3.87;1.17;;;;;;;24.80;33.98;99513.94;4482673;32;34499;-85
2023/08/10 11:33:36;;;;;;;6.00;1.00;;;;;;;24.39;34.49;99506.66;4481674;32;33661;-86
2023/08/10 11:36:04;;;;;;;3.20;1.10;;;;;;;24.44;33.87;99503.88;4482893;32;34511;-83
2023/08/10 11:38:43;;;;;;;5.65;0.98;;;;;;;24.58;33.72;99504.19;4483391;32;33926;-84
2023/08/10 11:41:11;;;;;;;1.85;0.80;;;;;;;24.54;36.13;99507.00;4481417;32;33940;-85